sensor_id;sensor_type;location;lat;lon;timestamp;pressure;altitude;pressure_sealevel;temperature;humidity
74975;BME280;64061;50.836;19.138;2022-12-10T00:02:59;97270.72;;;29.28;34.26
74975;BME280;64061;50.836;19.138;2022-12-10T00:06:06;97265.53;;;29.26;34.42
74975;BME280;64061;50.836;19.138;2022-12-10T00:09:12;97266.34;;;29.27;34.53
74975;BME280;64061;50.836;19.138;2022-12-10T00:12:17;97265.56;;;29.30;34.59
74975;BME280;64061;50.836;19.138;2022-12-10T00:15:21;97267.94;;;29.28;34.26
74975;BME280;64061;50.836;19.138;2022-12-10T00:18:26;97261.19;;;29.29;34.34
74975;BME280;64061;50.836;19.138;2022-12-10T00:21:32;97279.03;;;29.28;34.50
74975;BME280;64061;50.836;19.138;2022-12-10T00:24:37;97274.25;;;29.25;34.46
74975;BME280;64061;50.836;19.138;2022-12-10T00:27:41;97262.75;;;29.26;34.41
74975;BME280;64061;50.836;19.138;2022-12-10T00:30:45;97259.94;;;29.23;34.57
74975;BME280;64061;50.836;19.138;2022-12-10T00:33:50;97254.00;;;29.24;34.49
74975;BME280;64061;50.836;19.138;2022-12-10T00:36:55;97251.59;;;29.23;34.50
74975;BME280;64061;50.836;19.138;2022-12-10T00:39:59;97260.34;;;29.25;34.95
74975;BME280;64061;50.836;19.138;2022-12-10T00:43:03;97268.69;;;29.25;34.64
74975;BME280;64061;50.836;19.138;2022-12-10T00:46:07;97274.25;;;29.25;34.46
74975;BME280;64061;50.836;19.138;2022-12-10T00:49:13;97281.81;;;29.28;33.98
74975;BME280;64061;50.836;19.138;2022-12-10T00:52:16;97283.00;;;29.27;34.16
74975;BME280;64061;50.836;19.138;2022-12-10T00:55:20;97277.03;;;29.25;34.00
74975;BME280;64061;50.836;19.138;2022-12-10T00:58:27;97275.91;;;29.29;34.31
74975;BME280;64061;50.836;19.138;2022-12-10T01:01:34;97280.22;;;29.27;34.34
74975;BME280;64061;50.836;19.138;2022-12-10T01:04:41;97288.19;;;29.28;34.12
74975;BME280;64061;50.836;19.138;2022-12-10T01:07:44;97286.91;;;29.22;33.83
74975;BME280;64061;50.836;19.138;2022-12-10T01:10:52;97281.81;;;29.28;33.84
74975;BME280;64061;50.836;19.138;2022-12-10T01:13:57;97290.53;;;29.26;33.82
74975;BME280;64061;50.836;19.138;2022-12-10T01:17:04;97292.88;;;29.24;33.61
74975;BME280;64061;50.836;19.138;2022-12-10T01:20:11;97298.13;;;29.29;33.57
74975;BME280;64061;50.836;19.138;2022-12-10T01:23:15;97286.66;;;29.34;33.44
74975;BME280;64061;50.836;19.138;2022-12-10T01:26:20;97287.59;;;29.46;33.83
74975;BME280;64061;50.836;19.138;2022-12-10T01:29:25;97298.00;;;29.52;33.81
74975;BME280;64061;50.836;19.138;2022-12-10T01:32:30;97291.31;;;29.60;33.45
74975;BME280;64061;50.836;19.138;2022-12-10T01:35:36;97294.97;;;29.68;33.32
74975;BME280;64061;50.836;19.138;2022-12-10T01:38:41;97302.16;;;29.72;32.94
74975;BME280;64061;50.836;19.138;2022-12-10T01:41:47;97302.22;;;29.80;33.46
74975;BME280;64061;50.836;19.138;2022-12-10T01:45:06;97297.91;;;29.86;33.27
74975;BME280;64061;50.836;19.138;2022-12-10T01:48:12;97286.38;;;29.84;32.81
74975;BME280;64061;50.836;19.138;2022-12-10T01:51:18;97277.69;;;29.89;33.13
74975;BME280;64061;50.836;19.138;2022-12-10T01:54:28;97274.13;;;29.92;33.21
74975;BME280;64061;50.836;19.138;2022-12-10T01:57:34;97280.13;;;29.94;33.04
74975;BME280;64061;50.836;19.138;2022-12-10T02:00:44;97291.31;;;30.01;32.82
74975;BME280;64061;50.836;19.138;2022-12-10T02:04:03;97280.19;;;30.01;32.64
74975;BME280;64061;50.836;19.138;2022-12-10T02:07:24;97273.06;;;30.03;33.05
74975;BME280;64061;50.836;19.138;2022-12-10T02:10:50;97284.22;;;30.07;32.47
74975;BME280;64061;50.836;19.138;2022-12-10T02:14:07;97277.88;;;30.06;32.80
74975;BME280;64061;50.836;19.138;2022-12-10T02:17:18;97273.91;;;30.07;32.84
74975;BME280;64061;50.836;19.138;2022-12-10T02:20:33;97269.94;;;30.12;32.71
74975;BME280;64061;50.836;19.138;2022-12-10T02:23:46;97273.91;;;30.11;32.49
74975;BME280;64061;50.836;19.138;2022-12-10T02:27:00;97268.75;;;30.13;32.12
74975;BME280;64061;50.836;19.138;2022-12-10T02:30:10;97276.31;;;30.12;32.07
74975;BME280;64061;50.836;19.138;2022-12-10T02:33:14;97277.88;;;30.10;32.43
74975;BME280;64061;50.836;19.138;2022-12-10T02:36:21;97276.31;;;30.12;32.15
74975;BME280;64061;50.836;19.138;2022-12-10T02:39:33;97272.72;;;30.12;32.56
74975;BME280;64061;50.836;19.138;2022-12-10T02:42:43;97280.66;;;30.10;32.48
74975;BME280;64061;50.836;19.138;2022-12-10T02:45:52;97279.47;;;30.07;32.62
74975;BME280;64061;50.836;19.138;2022-12-10T02:49:00;97285.41;;;30.09;32.15
74975;BME280;64061;50.836;19.138;2022-12-10T02:52:09;97285.84;;;30.08;32.22
74975;BME280;64061;50.836;19.138;2022-12-10T02:55:18;97297.75;;;30.08;32.08
74975;BME280;64061;50.836;19.138;2022-12-10T02:58:31;97303.28;;;30.05;32.10
74975;BME280;64061;50.836;19.138;2022-12-10T03:01:55;97299.28;;;30.02;32.25
74975;BME280;64061;50.836;19.138;2022-12-10T03:05:12;97295.66;;;29.98;32.24
74975;BME280;64061;50.836;19.138;2022-12-10T03:08:22;97289.72;;;30.00;32.17
74975;BME280;64061;50.836;19.138;2022-12-10T03:11:30;97281.78;;;30.02;31.67
74975;BME280;64061;50.836;19.138;2022-12-10T03:14:35;97288.16;;;30.02;31.93
74975;BME280;64061;50.836;19.138;2022-12-10T03:17:43;97288.16;;;30.02;31.76
74975;BME280;64061;50.836;19.138;2022-12-10T03:20:51;97305.22;;;30.01;31.58
74975;BME280;64061;50.836;19.138;2022-12-10T03:23:59;97318.72;;;29.99;31.98
74975;BME280;64061;50.836;19.138;2022-12-10T03:27:04;97313.56;;;30.01;32.17
74975;BME280;64061;50.836;19.138;2022-12-10T03:30:12;97292.50;;;30.00;32.11
74975;BME280;64061;50.836;19.138;2022-12-10T03:33:17;97310.81;;;30.04;32.03
74975;BME280;64061;50.836;19.138;2022-12-10T03:36:22;97309.22;;;30.03;32.07
74975;BME280;64061;50.836;19.138;2022-12-10T03:39:27;97305.22;;;30.01;31.82
74975;BME280;64061;50.836;19.138;2022-12-10T03:42:32;97297.66;;;29.98;31.70
74975;BME280;64061;50.836;19.138;2022-12-10T03:45:38;97307.16;;;29.97;31.76
74975;BME280;64061;50.836;19.138;2022-12-10T03:48:44;97312.72;;;29.97;32.06
74975;BME280;64061;50.836;19.138;2022-12-10T03:51:47;97312.34;;;29.98;32.03
74975;BME280;64061;50.836;19.138;2022-12-10T03:54:51;97337.75;;;29.97;31.74
74975;BME280;64061;50.836;19.138;2022-12-10T03:57:54;97332.56;;;29.95;31.52
74975;BME280;64061;50.836;19.138;2022-12-10T04:00:58;97335.78;;;29.97;31.63
74975;BME280;64061;50.836;19.138;2022-12-10T04:04:04;97341.38;;;30.01;31.42
74975;BME280;64061;50.836;19.138;2022-12-10T04:07:08;97347.69;;;29.98;31.60
74975;BME280;64061;50.836;19.138;2022-12-10T04:10:12;97346.84;;;29.94;31.85
74975;BME280;64061;50.836;19.138;2022-12-10T04:13:15;97345.16;;;29.86;31.70
74975;BME280;64061;50.836;19.138;2022-12-10T04:16:37;97338.38;;;29.80;31.72
74975;BME280;64061;50.836;19.138;2022-12-10T04:19:43;97345.50;;;29.77;32.00
74975;BME280;64061;50.836;19.138;2022-12-10T04:22:47;97348.97;;;29.70;32.58
74975;BME280;64061;50.836;19.138;2022-12-10T04:26:09;97344.53;;;29.62;32.62
74975;BME280;64061;50.836;19.138;2022-12-10T04:29:30;97343.31;;;29.60;31.95
74975;BME280;64061;50.836;19.138;2022-12-10T04:32:34;97355.63;;;29.59;32.23
74975;BME280;64061;50.836;19.138;2022-12-10T04:35:39;97348.88;;;29.60;32.54
74975;BME280;64061;50.836;19.138;2022-12-10T04:38:43;97355.91;;;29.50;32.59
74975;BME280;64061;50.836;19.138;2022-12-10T04:41:48;97357.47;;;29.48;32.28
74975;BME280;64061;50.836;19.138;2022-12-10T04:44:52;97349.50;;;29.42;32.26
74975;BME280;64061;50.836;19.138;2022-12-10T04:47:55;97342.72;;;29.40;32.87
74975;BME280;64061;50.836;19.138;2022-12-10T04:51:00;97349.44;;;29.39;32.78
74975;BME280;64061;50.836;19.138;2022-12-10T04:54:05;97371.72;;;29.42;32.43
74975;BME280;64061;50.836;19.138;2022-12-10T04:57:09;97370.13;;;29.41;32.27
74975;BME280;64061;50.836;19.138;2022-12-10T05:00:13;97373.28;;;29.40;32.29
74975;BME280;64061;50.836;19.138;2022-12-10T05:03:17;97374.00;;;29.37;33.09
74975;BME280;64061;50.836;19.138;2022-12-10T05:06:23;97379.50;;;29.33;32.98
74975;BME280;64061;50.836;19.138;2022-12-10T05:09:27;97373.88;;;29.30;32.99
74975;BME280;64061;50.836;19.138;2022-12-10T05:12:31;97383.44;;;29.32;32.95
74975;BME280;64061;50.836;19.138;2022-12-10T05:15:37;97385.44;;;29.32;32.96
74975;BME280;64061;50.836;19.138;2022-12-10T05:18:41;97393.38;;;29.33;33.30
74975;BME280;64061;50.836;19.138;2022-12-10T05:21:48;97375.16;;;29.36;32.48
74975;BME280;64061;50.836;19.138;2022-12-10T05:25:09;97385.00;;;29.30;32.81
74975;BME280;64061;50.836;19.138;2022-12-10T05:28:13;97382.22;;;29.30;33.11
74975;BME280;64061;50.836;19.138;2022-12-10T05:31:19;97388.22;;;29.32;32.96
74975;BME280;64061;50.836;19.138;2022-12-10T05:34:24;97382.63;;;29.28;33.21
74975;BME280;64061;50.836;19.138;2022-12-10T05:37:29;97393.75;;;29.28;32.97
74975;BME280;64061;50.836;19.138;2022-12-10T05:40:34;97394.53;;;29.29;32.71
74975;BME280;64061;50.836;19.138;2022-12-10T05:43:38;97397.69;;;29.27;33.05
74975;BME280;64061;50.836;19.138;2022-12-10T05:46:41;97402.44;;;29.27;33.11
74975;BME280;64061;50.836;19.138;2022-12-10T05:49:45;97406.41;;;29.26;32.80
74975;BME280;64061;50.836;19.138;2022-12-10T05:52:55;97418.31;;;29.26;32.70
74975;BME280;64061;50.836;19.138;2022-12-10T05:56:02;97409.59;;;29.28;32.71
74975;BME280;64061;50.836;19.138;2022-12-10T05:59:07;97400.03;;;29.25;32.64
74975;BME280;64061;50.836;19.138;2022-12-10T06:02:17;97412.34;;;29.24;32.70
74975;BME280;64061;50.836;19.138;2022-12-10T06:05:21;97399.25;;;29.25;32.71
74975;BME280;64061;50.836;19.138;2022-12-10T06:08:26;97405.22;;;29.27;32.23
74975;BME280;64061;50.836;19.138;2022-12-10T06:11:30;97404.78;;;29.25;32.64
74975;BME280;64061;50.836;19.138;2022-12-10T06:14:34;97410.34;;;29.25;32.61
74975;BME280;64061;50.836;19.138;2022-12-10T06:17:37;97416.78;;;29.29;32.34
74975;BME280;64061;50.836;19.138;2022-12-10T06:20:43;97425.91;;;29.29;32.55
74975;BME280;64061;50.836;19.138;2022-12-10T06:23:50;97435.81;;;29.30;32.56
74975;BME280;64061;50.836;19.138;2022-12-10T06:26:54;97432.66;;;29.32;32.64
74975;BME280;64061;50.836;19.138;2022-12-10T06:29:58;97433.44;;;29.29;32.72
74975;BME280;64061;50.836;19.138;2022-12-10T06:33:02;97421.13;;;29.30;32.28
74975;BME280;64061;50.836;19.138;2022-12-10T06:36:07;97417.56;;;29.29;32.50
74975;BME280;64061;50.836;19.138;2022-12-10T06:39:13;97404.06;;;29.28;32.57
74975;BME280;64061;50.836;19.138;2022-12-10T06:42:17;97398.06;;;29.26;32.79
74975;BME280;64061;50.836;19.138;2022-12-10T06:45:21;97394.50;;;29.25;32.51
74975;BME280;64061;50.836;19.138;2022-12-10T06:48:24;97402.56;;;29.07;32.52
74975;BME280;64061;50.836;19.138;2022-12-10T06:51:28;97405.94;;;28.94;32.86
74975;BME280;64061;50.836;19.138;2022-12-10T06:54:33;97403.91;;;28.91;32.86
74975;BME280;64061;50.836;19.138;2022-12-10T06:57:36;97405.50;;;28.88;32.59
74975;BME280;64061;50.836;19.138;2022-12-10T07:00:40;97408.25;;;28.88;32.73
74975;BME280;64061;50.836;19.138;2022-12-10T07:03:43;97413.00;;;28.88;32.68
74975;BME280;64061;50.836;19.138;2022-12-10T07:06:50;97416.25;;;28.93;32.85
74975;BME280;64061;50.836;19.138;2022-12-10T07:09:55;97424.34;;;29.05;32.03
74975;BME280;64061;50.836;19.138;2022-12-10T07:12:59;97425.47;;;29.27;32.07
74975;BME280;64061;50.836;19.138;2022-12-10T07:16:02;97434.59;;;29.54;32.06
74975;BME280;64061;50.836;19.138;2022-12-10T07:19:14;97435.69;;;29.80;31.47
74975;BME280;64061;50.836;19.138;2022-12-10T07:22:18;97432.78;;;30.02;31.48
74975;BME280;64061;50.836;19.138;2022-12-10T07:25:23;97442.13;;;30.24;31.03
74975;BME280;64061;50.836;19.138;2022-12-10T07:28:26;97449.00;;;30.37;30.83
74975;BME280;64061;50.836;19.138;2022-12-10T07:31:36;97462.25;;;30.51;30.75
74975;BME280;64061;50.836;19.138;2022-12-10T07:34:39;97472.75;;;30.65;30.67
74975;BME280;64061;50.836;19.138;2022-12-10T07:37:43;97477.00;;;31.58;29.59
74975;BME280;64061;50.836;19.138;2022-12-10T07:40:48;97489.28;;;32.36;28.68
74975;BME280;64061;50.836;19.138;2022-12-10T07:43:52;97477.81;;;32.84;28.34
74975;BME280;64061;50.836;19.138;2022-12-10T07:46:55;97478.19;;;33.07;28.17
74975;BME280;64061;50.836;19.138;2022-12-10T07:49:59;97469.41;;;32.95;28.05
74975;BME280;64061;50.836;19.138;2022-12-10T07:53:03;97466.03;;;31.97;29.34
74975;BME280;64061;50.836;19.138;2022-12-10T07:56:08;97468.25;;;30.97;30.16
74975;BME280;64061;50.836;19.138;2022-12-10T07:59:12;97456.31;;;30.12;31.38
74975;BME280;64061;50.836;19.138;2022-12-10T08:02:16;97467.44;;;29.49;33.02
74975;BME280;64061;50.836;19.138;2022-12-10T08:05:19;97483.69;;;28.94;33.51
74975;BME280;64061;50.836;19.138;2022-12-10T08:08:23;97486.72;;;28.40;34.81
74975;BME280;64061;50.836;19.138;2022-12-10T08:11:28;97489.69;;;27.89;35.67
74975;BME280;64061;50.836;19.138;2022-12-10T08:14:31;97483.00;;;27.36;36.43
74975;BME280;64061;50.836;19.138;2022-12-10T08:17:35;97481.53;;;26.91;37.75
74975;BME280;64061;50.836;19.138;2022-12-10T08:20:38;97484.06;;;26.49;38.05
74975;BME280;64061;50.836;19.138;2022-12-10T08:23:42;97486.56;;;26.10;38.69
74975;BME280;64061;50.836;19.138;2022-12-10T08:26:48;97489.25;;;25.79;38.97
74975;BME280;64061;50.836;19.138;2022-12-10T08:29:52;97489.44;;;25.46;39.52
74975;BME280;64061;50.836;19.138;2022-12-10T08:32:55;97490.53;;;25.17;40.01
74975;BME280;64061;50.836;19.138;2022-12-10T08:35:59;97497.53;;;24.90;40.55
74975;BME280;64061;50.836;19.138;2022-12-10T08:39:04;97506.94;;;24.65;40.90
74975;BME280;64061;50.836;19.138;2022-12-10T08:42:09;97507.03;;;24.44;41.80
74975;BME280;64061;50.836;19.138;2022-12-10T08:45:12;97512.47;;;24.20;41.88
74975;BME280;64061;50.836;19.138;2022-12-10T08:48:16;97505.53;;;24.01;41.99
74975;BME280;64061;50.836;19.138;2022-12-10T08:51:20;97497.41;;;23.84;43.22
74975;BME280;64061;50.836;19.138;2022-12-10T08:54:23;97496.47;;;23.68;42.25
74975;BME280;64061;50.836;19.138;2022-12-10T08:57:28;97503.72;;;23.52;41.84
74975;BME280;64061;50.836;19.138;2022-12-10T09:00:32;97496.03;;;23.36;42.33
74975;BME280;64061;50.836;19.138;2022-12-10T09:03:36;97506.63;;;23.26;42.37
74975;BME280;64061;50.836;19.138;2022-12-10T09:06:40;97503.47;;;23.15;43.11
74975;BME280;64061;50.836;19.138;2022-12-10T09:09:43;97498.69;;;23.03;43.51
74975;BME280;64061;50.836;19.138;2022-12-10T09:12:49;97492.09;;;22.96;43.19
74975;BME280;64061;50.836;19.138;2022-12-10T09:15:52;97488.44;;;22.83;43.66
74975;BME280;64061;50.836;19.138;2022-12-10T09:18:56;97486.53;;;22.75;43.58
74975;BME280;64061;50.836;19.138;2022-12-10T09:22:00;97478.34;;;22.58;43.93
74975;BME280;64061;50.836;19.138;2022-12-10T09:25:06;97473.25;;;22.39;44.40
74975;BME280;64061;50.836;19.138;2022-12-10T09:28:13;97467.03;;;22.21;44.75
74975;BME280;64061;50.836;19.138;2022-12-10T09:31:19;97469.66;;;22.09;45.00
74975;BME280;64061;50.836;19.138;2022-12-10T09:34:23;97464.31;;;21.95;45.01
74975;BME280;64061;50.836;19.138;2022-12-10T09:37:27;97466.56;;;21.85;45.44
74975;BME280;64061;50.836;19.138;2022-12-10T09:40:36;97474.69;;;21.81;45.51
74975;BME280;64061;50.836;19.138;2022-12-10T09:43:51;97474.34;;;21.74;45.61
74975;BME280;64061;50.836;19.138;2022-12-10T09:47:04;97470.81;;;21.65;45.45
74975;BME280;64061;50.836;19.138;2022-12-10T09:50:16;97456.13;;;21.61;44.97
74975;BME280;64061;50.836;19.138;2022-12-10T09:53:28;97453.09;;;21.54;46.06
74975;BME280;64061;50.836;19.138;2022-12-10T09:56:36;97450.50;;;21.49;45.88
74975;BME280;64061;50.836;19.138;2022-12-10T09:59:46;97458.22;;;21.47;45.92
74975;BME280;64061;50.836;19.138;2022-12-10T10:02:55;97466.66;;;21.42;45.86
74975;BME280;64061;50.836;19.138;2022-12-10T10:06:03;97449.84;;;21.34;46.07
74975;BME280;64061;50.836;19.138;2022-12-10T10:09:14;97457.13;;;21.30;45.88
74975;BME280;64061;50.836;19.138;2022-12-10T10:12:18;97458.41;;;21.24;46.09
74975;BME280;64061;50.836;19.138;2022-12-10T10:15:26;97459.53;;;21.23;45.14
74975;BME280;64061;50.836;19.138;2022-12-10T10:18:36;97458.56;;;21.19;45.50
74975;BME280;64061;50.836;19.138;2022-12-10T10:21:46;97457.25;;;21.17;45.39
74975;BME280;64061;50.836;19.138;2022-12-10T10:24:52;97447.25;;;21.12;45.73
74975;BME280;64061;50.836;19.138;2022-12-10T10:27:55;97433.03;;;21.10;45.16
74975;BME280;64061;50.836;19.138;2022-12-10T10:31:00;97438.53;;;21.10;45.44
74975;BME280;64061;50.836;19.138;2022-12-10T10:34:12;97439.66;;;21.09;45.67
74975;BME280;64061;50.836;19.138;2022-12-10T10:37:20;97436.72;;;21.06;45.87
74975;BME280;64061;50.836;19.138;2022-12-10T10:40:30;97434.31;;;21.04;45.64
74975;BME280;64061;50.836;19.138;2022-12-10T10:43:40;97450.28;;;21.02;45.85
74975;BME280;64061;50.836;19.138;2022-12-10T10:46:50;97445.44;;;20.99;45.68
74975;BME280;64061;50.836;19.138;2022-12-10T10:49:57;97451.06;;;20.94;45.71
74975;BME280;64061;50.836;19.138;2022-12-10T10:53:01;97442.34;;;20.92;45.87
74975;BME280;64061;50.836;19.138;2022-12-10T10:56:06;97440.75;;;20.91;45.75
74975;BME280;64061;50.836;19.138;2022-12-10T10:59:29;97438.81;;;20.91;45.49
74975;BME280;64061;50.836;19.138;2022-12-10T11:02:37;97440.91;;;20.86;45.95
74975;BME280;64061;50.836;19.138;2022-12-10T11:05:46;97442.03;;;20.85;45.89
74975;BME280;64061;50.836;19.138;2022-12-10T11:08:55;97445.09;;;20.83;45.97
74975;BME280;64061;50.836;19.138;2022-12-10T11:12:04;97448.16;;;20.82;45.74
74975;BME280;64061;50.836;19.138;2022-12-10T11:15:30;97456.88;;;20.84;45.81
74975;BME280;64061;50.836;19.138;2022-12-10T11:18:39;97453.81;;;20.77;45.84
74975;BME280;64061;50.836;19.138;2022-12-10T11:21:44;97454.94;;;20.76;46.04
74975;BME280;64061;50.836;19.138;2022-12-10T11:24:48;97459.28;;;20.77;46.23
74975;BME280;64061;50.836;19.138;2022-12-10T11:27:55;97454.94;;;20.76;46.03
74975;BME280;64061;50.836;19.138;2022-12-10T11:31:17;97454.94;;;20.76;45.96
74975;BME280;64061;50.836;19.138;2022-12-10T11:34:44;97433.31;;;20.74;45.73
74975;BME280;64061;50.836;19.138;2022-12-10T11:38:03;97438.63;;;20.71;45.30
74975;BME280;64061;50.836;19.138;2022-12-10T11:41:23;97444.09;;;20.71;45.54
74975;BME280;64061;50.836;19.138;2022-12-10T11:44:42;97449.09;;;20.69;45.07
74975;BME280;64061;50.836;19.138;2022-12-10T11:48:00;97452.97;;;20.68;45.72
74975;BME280;64061;50.836;19.138;2022-12-10T11:51:19;97464.72;;;20.68;45.40
74975;BME280;64061;50.836;19.138;2022-12-10T11:54:56;97451.03;;;20.68;45.00
74975;BME280;64061;50.836;19.138;2022-12-10T11:58:21;97452.00;;;20.63;45.84
74975;BME280;64061;50.836;19.138;2022-12-10T12:01:46;97446.84;;;20.62;45.63
74975;BME280;64061;50.836;19.138;2022-12-10T12:05:11;97438.94;;;20.60;46.24
74975;BME280;64061;50.836;19.138;2022-12-10T12:08:38;97438.44;;;20.58;45.73
74975;BME280;64061;50.836;19.138;2022-12-10T12:12:01;97446.16;;;20.56;45.06
74975;BME280;64061;50.836;19.138;2022-12-10T12:15:18;97444.53;;;20.55;45.52
74975;BME280;64061;50.836;19.138;2022-12-10T12:18:30;97453.25;;;20.57;45.46
74975;BME280;64061;50.836;19.138;2022-12-10T12:21:40;97444.53;;;20.55;45.18
74975;BME280;64061;50.836;19.138;2022-12-10T12:24:50;97449.41;;;20.58;45.58
74975;BME280;64061;50.836;19.138;2022-12-10T12:28:04;97452.63;;;20.60;45.40
74975;BME280;64061;50.836;19.138;2022-12-10T12:31:18;97456.50;;;20.59;45.38
74975;BME280;64061;50.836;19.138;2022-12-10T12:34:29;97460.34;;;20.58;45.78
74975;BME280;64061;50.836;19.138;2022-12-10T12:37:46;97457.44;;;20.55;45.63
74975;BME280;64061;50.836;19.138;2022-12-10T12:41:02;97453.88;;;20.54;45.77
74975;BME280;64061;50.836;19.138;2022-12-10T12:44:14;97441.63;;;20.52;45.44
74975;BME280;64061;50.836;19.138;2022-12-10T12:47:34;97446.28;;;20.51;45.50
74975;BME280;64061;50.836;19.138;2022-12-10T12:50:46;97442.59;;;20.47;45.25
74975;BME280;64061;50.836;19.138;2022-12-10T12:53:53;97444.03;;;20.45;45.42
74975;BME280;64061;50.836;19.138;2022-12-10T12:57:06;97437.63;;;20.49;44.99
74975;BME280;64061;50.836;19.138;2022-12-10T13:00:18;97440.47;;;20.44;45.67
74975;BME280;64061;50.836;19.138;2022-12-10T13:03:33;97443.72;;;20.46;45.35
74975;BME280;64061;50.836;19.138;2022-12-10T13:06:40;97450.94;;;20.42;45.63
74975;BME280;64061;50.836;19.138;2022-12-10T13:09:47;97440.00;;;20.42;46.34
74975;BME280;64061;50.836;19.138;2022-12-10T13:13:21;97444.84;;;20.45;45.53
74975;BME280;64061;50.836;19.138;2022-12-10T13:16:48;97448.22;;;20.42;45.41
74975;BME280;64061;50.836;19.138;2022-12-10T13:20:25;97454.00;;;20.41;45.38
74975;BME280;64061;50.836;19.138;2022-12-10T13:23:33;97451.69;;;20.34;45.91
74975;BME280;64061;50.836;19.138;2022-12-10T13:27:03;97446.75;;;20.36;45.47
74975;BME280;64061;50.836;19.138;2022-12-10T13:30:42;97449.97;;;20.38;45.49
74975;BME280;64061;50.836;19.138;2022-12-10T13:33:50;97463.28;;;20.31;45.35
74975;BME280;64061;50.836;19.138;2022-12-10T13:37:14;97463.47;;;20.35;45.65
74975;BME280;64061;50.836;19.138;2022-12-10T13:40:39;97466.03;;;20.31;45.55
74975;BME280;64061;50.836;19.138;2022-12-10T13:44:31;97472.00;;;20.33;45.82
74975;BME280;64061;50.836;19.138;2022-12-10T13:47:43;97463.91;;;20.28;45.79
74975;BME280;64061;50.836;19.138;2022-12-10T13:50:58;97466.66;;;20.28;45.86
74975;BME280;64061;50.836;19.138;2022-12-10T13:54:41;97474.56;;;20.29;45.51
74975;BME280;64061;50.836;19.138;2022-12-10T13:58:22;97472.75;;;20.25;45.58
74975;BME280;64061;50.836;19.138;2022-12-10T14:01:42;97470.66;;;20.22;45.58
74975;BME280;64061;50.836;19.138;2022-12-10T14:05:18;97468.06;;;20.25;45.47
74975;BME280;64061;50.836;19.138;2022-12-10T14:08:32;97474.03;;;20.19;45.68
74975;BME280;64061;50.836;19.138;2022-12-10T14:11:46;97478.06;;;20.21;45.51
74975;BME280;64061;50.836;19.138;2022-12-10T14:14:56;97480.34;;;20.28;45.03
74975;BME280;64061;50.836;19.138;2022-12-10T14:18:09;97478.50;;;20.37;44.44
74975;BME280;64061;50.836;19.138;2022-12-10T14:21:17;97485.09;;;20.36;44.55
74975;BME280;64061;50.836;19.138;2022-12-10T14:24:29;97487.19;;;20.39;43.63
74975;BME280;64061;50.836;19.138;2022-12-10T14:27:35;97492.50;;;20.36;44.64
74975;BME280;64061;50.836;19.138;2022-12-10T14:30:42;97492.66;;;20.39;44.74
74975;BME280;64061;50.836;19.138;2022-12-10T14:33:50;97482.81;;;20.38;44.65
74975;BME280;64061;50.836;19.138;2022-12-10T14:37:01;97489.91;;;20.39;44.36
74975;BME280;64061;50.836;19.138;2022-12-10T14:40:08;97489.75;;;20.36;44.79
74975;BME280;64061;50.836;19.138;2022-12-10T14:43:22;97499.88;;;20.35;44.58
74975;BME280;64061;50.836;19.138;2022-12-10T14:46:39;97501.63;;;20.31;44.78
74975;BME280;64061;50.836;19.138;2022-12-10T14:49:47;97512.28;;;20.33;45.21
74975;BME280;64061;50.836;19.138;2022-12-10T14:52:52;97507.41;;;20.29;44.94
74975;BME280;64061;50.836;19.138;2022-12-10T14:56:00;97519.38;;;20.34;45.17
74975;BME280;64061;50.836;19.138;2022-12-10T14:59:12;97517.97;;;20.36;45.38
74975;BME280;64061;50.836;19.138;2022-12-10T15:02:24;97512.75;;;20.35;45.26
74975;BME280;64061;50.836;19.138;2022-12-10T15:05:34;97517.16;;;20.36;45.05
74975;BME280;64061;50.836;19.138;2022-12-10T15:08:41;97510.84;;;20.35;44.72
74975;BME280;64061;50.836;19.138;2022-12-10T15:11:52;97507.81;;;20.37;44.85
74975;BME280;64061;50.836;19.138;2022-12-10T15:15:00;97506.47;;;20.34;44.99
74975;BME280;64061;50.836;19.138;2022-12-10T15:18:11;97513.06;;;20.33;45.04
74975;BME280;64061;50.836;19.138;2022-12-10T15:21:23;97521.59;;;20.32;45.07
74975;BME280;64061;50.836;19.138;2022-12-10T15:24:35;97522.91;;;20.34;45.06
74975;BME280;64061;50.836;19.138;2022-12-10T15:27:52;97527.28;;;20.35;44.97
74975;BME280;64061;50.836;19.138;2022-12-10T15:30:57;97525.78;;;20.29;45.04
74975;BME280;64061;50.836;19.138;2022-12-10T15:34:14;97525.28;;;20.27;44.87
74975;BME280;64061;50.836;19.138;2022-12-10T15:37:23;97530.94;;;20.31;45.16
74975;BME280;64061;50.836;19.138;2022-12-10T15:40:30;97517.88;;;20.27;45.23
74975;BME280;64061;50.836;19.138;2022-12-10T15:43:34;97522.84;;;20.25;45.51
74975;BME280;64061;50.836;19.138;2022-12-10T15:46:46;97519.19;;;20.30;45.19
74975;BME280;64061;50.836;19.138;2022-12-10T15:49:52;97514.94;;;20.24;44.69
74975;BME280;64061;50.836;19.138;2022-12-10T15:52:59;97506.72;;;20.24;45.48
74975;BME280;64061;50.836;19.138;2022-12-10T15:56:03;97498.50;;;20.24;45.00
74975;BME280;64061;50.836;19.138;2022-12-10T15:59:07;97502.88;;;20.25;45.21
74975;BME280;64061;50.836;19.138;2022-12-10T16:02:24;97504.19;;;20.27;44.66
74975;BME280;64061;50.836;19.138;2022-12-10T16:05:35;97513.66;;;20.21;45.43
74975;BME280;64061;50.836;19.138;2022-12-10T16:08:41;97511.75;;;20.22;45.33
74975;BME280;64061;50.836;19.138;2022-12-10T16:11:44;97517.22;;;20.22;45.15
74975;BME280;64061;50.836;19.138;2022-12-10T16:14:50;97517.69;;;20.24;45.15
74975;BME280;64061;50.836;19.138;2022-12-10T16:17:58;97517.84;;;20.19;45.33
74975;BME280;64061;50.836;19.138;2022-12-10T16:21:02;97520.06;;;20.17;45.45
74975;BME280;64061;50.836;19.138;2022-12-10T16:24:08;97518.44;;;20.16;45.63
74975;BME280;64061;50.836;19.138;2022-12-10T16:27:12;97519.06;;;20.13;44.89
74975;BME280;64061;50.836;19.138;2022-12-10T16:30:19;97519.06;;;20.13;45.36